Time;durP1;ratioP1;P1;durP2;ratioP2;P2;SDS_P1;SDS_P2;PMS_P1;PMS_P2;Temp;Humidity;BMP_temperature;BMP_pressure;BME280_temperature;BME280_humidity;BME280_pressure;Samples;Min_cycle;Max_cycle;Signal;HPM_P1;HPM_P2
2022/10/15 00:01:14;;;;;;;1.85;0.82;;;16.80;99.90;;;;;;5056573;28;20232;-56
2022/10/15 00:03:42;;;;;;;5.75;2.85;;;16.80;99.90;;;;;;5055260;28;20284;-56
2022/10/15 00:06:12;;;;;;;1.95;0.93;;;16.90;99.90;;;;;;5055977;28;20233;-56
2022/10/15 00:08:40;;;;;;;1.55;0.30;;;16.90;99.90;;;;;;5056425;28;20225;-56
2022/10/15 00:11:08;;;;;;;1.13;0.70;;;17.00;99.90;;;;;;5055302;28;20300;-55
2022/10/15 00:13:35;;;;;;;0.88;0.40;;;17.00;99.90;;;;;;5055152;28;20204;-55
2022/10/15 00:16:03;;;;;;;0.30;0.30;;;17.00;99.90;;;;;;5054903;28;20205;-54
2022/10/15 00:18:30;;;;;;;1.63;0.20;;;17.00;99.90;;;;;;5055288;28;20276;-55
2022/10/15 00:20:56;;;;;;;0.73;0.40;;;17.00;99.90;;;;;;5055288;28;20978;-55
2022/10/15 00:23:25;;;;;;;1.85;0.60;;;17.10;99.90;;;;;;5054806;28;20261;-55
2022/10/15 00:26:01;;;;;;;1.42;0.55;;;17.20;99.90;;;;;;5055088;28;20273;-55
2022/10/15 00:28:28;;;;;;;2.88;0.30;;;17.20;99.90;;;;;;5055178;28;20681;-56
2022/10/15 00:31:01;;;;;;;1.02;0.52;;;17.10;99.90;;;;;;5055365;28;20636;-56
2022/10/15 00:33:28;;;;;;;0.30;0.30;;;17.10;99.90;;;;;;5054275;28;20205;-55
2022/10/15 00:36:03;;;;;;;0.50;0.30;;;17.10;99.90;;;;;;5054833;28;20202;-55
2022/10/15 00:38:31;;;;;;;0.77;0.20;;;17.10;99.90;;;;;;5054504;28;20232;-55
2022/10/15 00:40:59;;;;;;;1.63;0.40;;;17.10;99.90;;;;;;5054740;28;20237;-54
2022/10/15 00:43:40;;;;;;;0.57;0.30;;;17.20;99.90;;;;;;5053737;28;20263;-55
2022/10/15 00:46:17;;;;;;;0.25;0.25;;;17.10;99.90;;;;;;5054272;28;20284;-56
2022/10/15 00:48:47;;;;;;;0.52;0.30;;;17.10;99.90;;;;;;5053578;28;20221;-56
2022/10/15 00:51:15;;;;;;;1.08;0.50;;;17.10;99.90;;;;;;5053891;28;20673;-55
2022/10/15 00:53:44;;;;;;;0.47;0.30;;;17.10;99.90;;;;;;5053781;28;20207;-54
2022/10/15 00:56:13;;;;;;;0.20;0.20;;;17.10;99.90;;;;;;5053748;28;20202;-54
2022/10/15 00:58:40;;;;;;;0.22;0.22;;;17.10;99.90;;;;;;5053744;28;20283;-57
2022/10/15 01:01:07;;;;;;;0.75;0.40;;;17.10;99.90;;;;;;5054327;28;20236;-55
2022/10/15 01:03:35;;;;;;;2.15;0.30;;;17.10;99.90;;;;;;5053787;28;20226;-56
2022/10/15 01:06:02;;;;;;;3.63;3.33;;;17.10;99.90;;;;;;5054695;28;20210;-55
2022/10/15 01:08:29;;;;;;;0.45;0.43;;;17.10;99.90;;;;;;5054116;28;20574;-55
2022/10/15 01:11:09;;;;;;;1.35;0.50;;;17.10;99.90;;;;;;5053589;28;20209;-56
2022/10/15 01:13:44;;;;;;;0.38;0.32;;;17.10;99.90;;;;;;5053312;28;20216;-56
2022/10/15 01:16:19;;;;;;;1.83;0.40;;;17.10;99.90;;;;;;5053357;28;20670;-55
2022/10/15 01:18:52;;;;;;;1.42;0.40;;;17.10;99.90;;;;;;5053123;28;20221;-58
2022/10/15 01:21:25;;;;;;;1.38;0.47;;;17.10;99.90;;;;;;5053614;28;20216;-55
2022/10/15 01:24:33;;;;;;;0.82;0.38;;;17.00;99.90;;;;;;5053105;28;20235;-54
2022/10/15 01:27:24;;;;;;;1.17;0.20;;;17.00;99.90;;;;;;5052992;28;20236;-55
2022/10/15 01:30:11;;;;;;;0.30;0.20;;;17.00;99.90;;;;;;5052699;28;20595;-55
2022/10/15 01:32:48;;;;;;;0.30;0.30;;;17.00;99.90;;;;;;5053004;28;20681;-57
2022/10/15 01:35:22;;;;;;;0.47;0.20;;;16.90;99.90;;;;;;5053695;28;20209;-57
2022/10/15 01:37:55;;;;;;;0.47;0.30;;;16.90;99.90;;;;;;5053303;28;20224;-56
2022/10/15 01:40:29;;;;;;;0.35;0.20;;;16.90;99.90;;;;;;5061222;22;20240;-63
2022/10/15 01:42:58;;;;;;;1.17;0.30;;;16.90;99.90;;;;;;5051036;28;20210;-63
2022/10/15 01:45:30;;;;;;;1.17;0.30;;;16.90;99.90;;;;;;5053781;28;20202;-62
2022/10/15 01:48:02;;;;;;;1.25;0.30;;;16.90;99.90;;;;;;5053627;28;20206;-63
2022/10/15 01:50:32;;;;;;;0.30;0.30;;;16.90;99.90;;;;;;5051694;28;20238;-64
2022/10/15 01:53:00;;;;;;;0.60;0.30;;;17.00;99.90;;;;;;5051842;28;20706;-63
2022/10/15 01:55:29;;;;;;;0.77;0.30;;;17.00;99.90;;;;;;5051842;28;20237;-63
2022/10/15 01:57:59;;;;;;;0.30;0.20;;;17.00;99.90;;;;;;5051718;28;20209;-63
2022/10/15 02:00:27;;;;;;;0.70;0.25;;;17.00;99.90;;;;;;5051521;28;20277;-63
2022/10/15 02:02:58;;;;;;;0.45;0.28;;;17.00;99.90;;;;;;5054223;28;20205;-63
2022/10/15 02:05:32;;;;;;;0.65;0.28;;;17.00;99.90;;;;;;5055652;28;20210;-63
2022/10/15 02:08:05;;;;;;;2.03;0.32;;;17.00;99.90;;;;;;5055470;28;20210;-64
2022/10/15 02:10:42;;;;;;;0.65;0.30;;;17.00;99.90;;;;;;5055350;28;20575;-62
2022/10/15 02:13:15;;;;;;;1.05;0.20;;;17.00;99.90;;;;;;5054535;28;20217;-63
2022/10/15 02:15:50;;;;;;;0.70;0.13;;;17.00;99.90;;;;;;5055072;28;20206;-61
2022/10/15 02:18:25;;;;;;;0.87;0.20;;;16.90;99.90;;;;;;5055214;28;20209;-62
2022/10/15 02:20:58;;;;;;;0.20;0.20;;;16.90;99.90;;;;;;5055349;28;20687;-63
2022/10/15 02:23:28;;;;;;;0.70;0.30;;;16.90;99.90;;;;;;5054496;28;20225;-63
2022/10/15 02:25:56;;;;;;;0.93;0.20;;;16.90;99.90;;;;;;5054859;28;20209;-63
2022/10/15 02:28:27;;;;;;;0.70;0.20;;;17.00;99.90;;;;;;5055035;28;20206;-63
2022/10/15 02:30:58;;;;;;;0.68;0.10;;;16.90;99.90;;;;;;5054810;28;20669;-63
2022/10/15 02:33:26;;;;;;;0.35;0.13;;;16.90;99.90;;;;;;5054354;28;20205;-63
2022/10/15 02:35:55;;;;;;;1.23;0.28;;;16.90;99.90;;;;;;5054712;28;20217;-63
2022/10/15 02:38:26;;;;;;;0.35;0.20;;;17.00;99.90;;;;;;5054533;28;20202;-63
2022/10/15 02:40:53;;;;;;;0.65;0.30;;;17.00;99.90;;;;;;5054530;28;20217;-63
2022/10/15 02:43:21;;;;;;;0.82;0.20;;;17.10;99.90;;;;;;5054019;28;20201;-62
2022/10/15 02:45:49;;;;;;;0.47;0.20;;;17.20;99.90;;;;;;5054640;28;20206;-63
2022/10/15 02:48:17;;;;;;;0.82;0.17;;;17.30;99.90;;;;;;5054623;28;20221;-63
2022/10/15 02:50:44;;;;;;;0.20;0.20;;;17.30;99.90;;;;;;5054339;28;20210;-63
2022/10/15 02:53:10;;;;;;;0.28;0.28;;;17.30;99.90;;;;;;5053966;28;20220;-62
2022/10/15 02:55:37;;;;;;;1.13;0.30;;;17.30;99.90;;;;;;5054543;28;20210;-63
2022/10/15 02:58:04;;;;;;;1.58;0.63;;;17.40;99.90;;;;;;5054747;28;20213;-63
2022/10/15 03:00:31;;;;;;;0.30;0.30;;;17.40;99.90;;;;;;5054040;28;20710;-63
2022/10/15 03:02:57;;;;;;;0.13;0.10;;;17.40;99.90;;;;;;5053612;28;20209;-63
2022/10/15 03:05:25;;;;;;;0.70;0.30;;;17.40;99.90;;;;;;5053944;28;20225;-63
2022/10/15 03:07:52;;;;;;;1.55;0.70;;;17.40;99.90;;;;;;5053808;28;20201;-63
2022/10/15 03:10:19;;;;;;;0.50;0.35;;;17.50;99.90;;;;;;5053961;28;20316;-62
2022/10/15 03:12:46;;;;;;;0.88;0.10;;;17.50;99.90;;;;;;5053152;28;20578;-63
2022/10/15 03:15:13;;;;;;;1.67;0.60;;;17.50;99.90;;;;;;5053904;28;20682;-64
2022/10/15 03:17:39;;;;;;;0.47;0.35;;;17.50;99.90;;;;;;5053813;28;20304;-63
2022/10/15 03:20:07;;;;;;;0.63;0.35;;;17.50;99.90;;;;;;5053675;28;20238;-63
2022/10/15 03:22:35;;;;;;;2.15;0.38;;;17.50;99.90;;;;;;5053313;28;20205;-63
2022/10/15 03:25:01;;;;;;;0.20;0.10;;;17.50;99.90;;;;;;5053750;28;20225;-62
2022/10/15 03:27:28;;;;;;;0.65;0.30;;;17.50;99.90;;;;;;5053766;28;20205;-63
2022/10/15 03:29:55;;;;;;;3.90;0.68;;;17.50;99.90;;;;;;5053601;28;20232;-63
2022/10/15 03:32:21;;;;;;;1.45;0.20;;;17.50;99.90;;;;;;5053009;28;20209;-63
2022/10/15 03:34:48;;;;;;;0.20;0.10;;;17.60;99.90;;;;;;5053503;28;20198;-63
2022/10/15 03:37:15;;;;;;;0.60;0.50;;;17.60;99.90;;;;;;5053419;28;20205;-63
2022/10/15 03:39:43;;;;;;;0.38;0.13;;;17.60;99.90;;;;;;5053480;28;20233;-62
2022/10/15 03:42:09;;;;;;;0.40;0.40;;;17.70;99.90;;;;;;5051877;28;20688;-63
2022/10/15 03:44:36;;;;;;;0.98;0.50;;;17.60;99.90;;;;;;5053455;28;20221;-63
2022/10/15 03:47:03;;;;;;;1.08;0.50;;;17.70;99.90;;;;;;5053463;28;20680;-63
2022/10/15 03:49:30;;;;;;;0.98;0.50;;;17.60;99.90;;;;;;5054308;28;20572;-63
2022/10/15 03:51:56;;;;;;;1.88;0.30;;;17.70;99.90;;;;;;5054459;28;20210;-63
2022/10/15 03:54:23;;;;;;;0.40;0.20;;;17.70;99.90;;;;;;5054373;28;20205;-63
2022/10/15 03:56:51;;;;;;;1.13;0.20;;;17.60;99.90;;;;;;5054730;28;20236;-62
2022/10/15 03:59:18;;;;;;;0.70;0.30;;;17.60;99.90;;;;;;5053504;28;20221;-62
2022/10/15 04:01:45;;;;;;;2.15;0.35;;;17.60;99.90;;;;;;5053316;28;20205;-63
2022/10/15 04:04:12;;;;;;;0.60;0.30;;;17.60;99.90;;;;;;5052724;28;20226;-63
2022/10/15 04:06:39;;;;;;;1.17;0.20;;;17.70;99.90;;;;;;5053190;28;20229;-63
2022/10/15 04:09:06;;;;;;;0.80;0.28;;;17.70;99.90;;;;;;5053041;28;20237;-63
2022/10/15 04:11:32;;;;;;;0.73;0.30;;;17.70;99.90;;;;;;5052822;28;20698;-62
2022/10/15 04:14:00;;;;;;;0.95;0.35;;;17.70;99.90;;;;;;5052282;28;20208;-63
2022/10/15 04:16:27;;;;;;;0.65;0.15;;;17.70;99.90;;;;;;5052656;28;20213;-63
2022/10/15 04:18:54;;;;;;;0.40;0.17;;;17.60;99.90;;;;;;5053019;28;20232;-63
2022/10/15 04:21:21;;;;;;;1.52;0.40;;;17.60;99.90;;;;;;5052883;28;20202;-62
2022/10/15 04:23:47;;;;;;;2.65;0.50;;;17.50;99.90;;;;;;5051407;28;20244;-62
2022/10/15 04:26:14;;;;;;;0.40;0.40;;;17.60;99.90;;;;;;5052682;28;20213;-62
2022/10/15 04:28:41;;;;;;;1.08;0.30;;;17.60;99.90;;;;;;5053046;28;20230;-61
2022/10/15 04:31:09;;;;;;;2.28;0.55;;;17.70;99.90;;;;;;5054246;28;20216;-62
2022/10/15 04:33:36;;;;;;;0.43;0.43;;;17.70;99.90;;;;;;5053170;28;20231;-61
2022/10/15 04:36:05;;;;;;;2.35;0.20;;;17.70;99.90;;;;;;5053364;28;20205;-64
2022/10/15 04:38:32;;;;;;;1.08;0.45;;;17.70;99.90;;;;;;5052671;28;20213;-63
2022/10/15 04:41:01;;;;;;;3.42;0.60;;;17.70;99.90;;;;;;5052472;28;20580;-62
2022/10/15 04:43:28;;;;;;;1.98;0.40;;;17.80;99.90;;;;;;5051883;28;20684;-63
2022/10/15 04:45:58;;;;;;;1.08;0.30;;;17.80;99.90;;;;;;5052317;28;20236;-62
2022/10/15 04:48:28;;;;;;;0.75;0.30;;;17.80;99.90;;;;;;5052549;28;20209;-65
2022/10/15 04:50:55;;;;;;;1.38;0.25;;;17.80;99.90;;;;;;5052466;28;20216;-64
2022/10/15 04:53:22;;;;;;;0.55;0.20;;;17.80;99.90;;;;;;5051498;28;20673;-64
2022/10/15 04:55:48;;;;;;;0.40;0.30;;;17.80;99.90;;;;;;5052095;28;20205;-64
2022/10/15 04:58:15;;;;;;;0.52;0.20;;;17.80;99.90;;;;;;5052372;28;20209;-63
2022/10/15 05:00:42;;;;;;;2.28;0.10;;;17.70;99.90;;;;;;5052801;28;20668;-64
2022/10/15 05:03:09;;;;;;;1.17;0.13;;;17.70;99.90;;;;;;5051768;28;20206;-64
2022/10/15 05:05:37;;;;;;;0.57;0.50;;;17.70;99.90;;;;;;5052085;28;20726;-64
2022/10/15 05:08:04;;;;;;;0.60;0.60;;;17.70;99.90;;;;;;5052242;28;20243;-64
2022/10/15 05:10:32;;;;;;;3.78;0.70;;;17.80;99.90;;;;;;5052030;28;20280;-64
2022/10/15 05:12:59;;;;;;;2.22;0.50;;;17.80;99.90;;;;;;5051544;28;20665;-64
2022/10/15 05:15:26;;;;;;;0.57;0.35;;;17.80;99.90;;;;;;5052451;28;20208;-64
2022/10/15 05:17:53;;;;;;;1.05;0.35;;;17.80;99.90;;;;;;5051931;28;20233;-64
2022/10/15 05:20:20;;;;;;;0.85;0.50;;;17.80;99.90;;;;;;5052000;28;20260;-64
2022/10/15 05:22:48;;;;;;;1.45;0.52;;;17.80;99.90;;;;;;5051179;28;20208;-64
2022/10/15 05:25:14;;;;;;;0.65;0.40;;;17.80;99.90;;;;;;5051706;28;20233;-64
2022/10/15 05:27:41;;;;;;;3.00;0.45;;;17.80;99.90;;;;;;5051988;28;20275;-63
2022/10/15 05:30:09;;;;;;;2.70;0.55;;;17.70;99.90;;;;;;5051808;28;20230;-64
2022/10/15 05:32:35;;;;;;;0.43;0.32;;;17.70;99.90;;;;;;5051249;28;20205;-63
2022/10/15 05:35:02;;;;;;;0.28;0.28;;;17.80;99.90;;;;;;5052624;28;20280;-62
2022/10/15 05:37:29;;;;;;;1.02;0.40;;;17.70;99.90;;;;;;5055906;28;20236;-63
2022/10/15 05:39:57;;;;;;;1.13;0.40;;;17.90;99.90;;;;;;5055615;28;20233;-62
2022/10/15 05:42:24;;;;;;;3.00;0.50;;;17.90;99.90;;;;;;5055351;28;20575;-63
2022/10/15 05:44:50;;;;;;;1.55;0.47;;;17.90;99.90;;;;;;5055785;28;20612;-61
2022/10/15 05:47:17;;;;;;;1.55;1.10;;;18.00;99.90;;;;;;5055570;28;20669;-64
2022/10/15 05:49:44;;;;;;;1.17;0.85;;;18.00;99.90;;;;;;5055545;28;20233;-63
2022/10/15 05:52:10;;;;;;;1.98;1.30;;;18.10;99.90;;;;;;5055523;28;20221;-63
2022/10/15 05:54:37;;;;;;;2.65;1.02;;;18.10;99.90;;;;;;5055136;28;20209;-63
2022/10/15 05:57:05;;;;;;;4.40;3.05;;;18.10;99.90;;;;;;5055585;28;20216;-63
2022/10/15 05:59:32;;;;;;;1.02;0.82;;;18.10;99.90;;;;;;5055422;28;20628;-63
2022/10/15 06:01:59;;;;;;;1.20;0.50;;;18.20;99.90;;;;;;5055483;28;20218;-63
2022/10/15 06:04:25;;;;;;;3.83;1.63;;;18.20;99.90;;;;;;5054673;28;20206;-63
2022/10/15 06:06:52;;;;;;;2.33;1.63;;;18.20;99.90;;;;;;5055146;28;20644;-63
2022/10/15 06:09:19;;;;;;;2.00;1.35;;;18.20;99.90;;;;;;5055471;28;20229;-63
2022/10/15 06:11:45;;;;;;;2.13;1.17;;;18.30;99.90;;;;;;5055234;28;20674;-63
2022/10/15 06:14:14;;;;;;;2.78;0.63;;;18.30;99.90;;;;;;5054824;28;20202;-63
2022/10/15 06:16:40;;;;;;;1.60;0.82;;;18.30;99.90;;;;;;5055048;28;20210;-63
2022/10/15 06:19:07;;;;;;;0.95;0.65;;;18.30;99.90;;;;;;5054935;28;20312;-62
2022/10/15 06:21:34;;;;;;;1.60;0.77;;;18.30;99.90;;;;;;5055287;28;20202;-63
2022/10/15 06:24:01;;;;;;;1.83;1.23;;;18.30;99.90;;;;;;5054260;28;20584;-63
2022/10/15 06:26:27;;;;;;;5.25;0.82;;;18.40;99.90;;;;;;5054801;28;20236;-62
2022/10/15 06:28:54;;;;;;;1.10;0.70;;;18.40;99.90;;;;;;5054791;28;20222;-63
2022/10/15 06:31:22;;;;;;;2.95;0.82;;;18.40;99.90;;;;;;5054867;28;20256;-63
2022/10/15 06:33:49;;;;;;;1.13;0.60;;;18.50;99.90;;;;;;5053981;28;20217;-63
2022/10/15 06:36:16;;;;;;;1.95;0.40;;;18.40;99.90;;;;;;5054833;28;20252;-63
2022/10/15 06:38:43;;;;;;;3.63;1.02;;;18.30;99.90;;;;;;5054502;28;20312;-63
2022/10/15 06:41:10;;;;;;;1.88;0.30;;;18.40;99.90;;;;;;5054735;28;20677;-63
2022/10/15 06:43:37;;;;;;;0.80;0.60;;;18.40;99.90;;;;;;5053888;28;20607;-63
2022/10/15 06:46:05;;;;;;;5.18;0.95;;;18.40;99.90;;;;;;5054503;28;20233;-63
2022/10/15 06:48:35;;;;;;;7.28;3.63;;;18.40;99.90;;;;;;5053367;28;20214;-63
2022/10/15 06:51:02;;;;;;;1.40;0.80;;;18.50;99.90;;;;;;5054395;28;20201;-63
2022/10/15 06:53:30;;;;;;;2.78;0.77;;;18.60;99.90;;;;;;5053835;28;20229;-62
2022/10/15 06:55:58;;;;;;;0.80;0.68;;;18.60;99.90;;;;;;5054175;28;20694;-63
2022/10/15 06:58:25;;;;;;;0.32;0.25;;;18.60;99.90;;;;;;5054257;28;20206;-63
2022/10/15 07:00:52;;;;;;;2.90;0.80;;;18.50;99.90;;;;;;5054126;28;20696;-63
2022/10/15 07:03:19;;;;;;;1.55;0.63;;;18.50;99.90;;;;;;5053833;28;20222;-65
2022/10/15 07:05:47;;;;;;;0.93;0.77;;;18.50;99.90;;;;;;5054422;28;20595;-65
2022/10/15 07:08:13;;;;;;;4.00;0.68;;;18.60;99.90;;;;;;5054288;28;20209;-65
2022/10/15 07:10:40;;;;;;;2.65;0.60;;;18.60;99.90;;;;;;5054138;28;20256;-65
2022/10/15 07:13:07;;;;;;;1.95;0.63;;;18.60;99.90;;;;;;5053264;28;20704;-64
2022/10/15 07:15:33;;;;;;;0.50;0.40;;;18.60;99.90;;;;;;5054414;28;20202;-65
2022/10/15 07:18:01;;;;;;;1.90;0.73;;;18.60;99.90;;;;;;5054856;28;20205;-65
2022/10/15 07:20:28;;;;;;;0.90;0.60;;;18.70;99.90;;;;;;5049679;28;20271;-65
2022/10/15 07:22:58;;;;;;;2.45;1.38;;;18.70;99.90;;;;;;5029804;28;20264;-67
2022/10/15 07:25:25;;;;;;;0.93;0.60;;;18.80;99.90;;;;;;5044104;28;20253;-64
2022/10/15 07:27:51;;;;;;;1.63;0.50;;;18.80;99.90;;;;;;5054281;28;20212;-65
2022/10/15 07:30:18;;;;;;;0.82;0.50;;;18.90;99.90;;;;;;5054580;28;20233;-63
2022/10/15 07:32:45;;;;;;;2.60;0.70;;;19.00;99.90;;;;;;5052977;28;20213;-62
2022/10/15 07:35:12;;;;;;;0.65;0.40;;;19.10;99.90;;;;;;5053018;28;20213;-66
2022/10/15 07:37:39;;;;;;;2.88;0.65;;;19.10;99.90;;;;;;5052562;28;20680;-64
2022/10/15 07:40:08;;;;;;;1.23;0.60;;;19.20;99.90;;;;;;5052893;28;20245;-62
2022/10/15 07:42:35;;;;;;;0.98;0.77;;;19.30;99.90;;;;;;5051814;28;20209;-60
2022/10/15 07:45:01;;;;;;;2.58;1.00;;;19.40;99.90;;;;;;5052252;28;20202;-63
2022/10/15 07:47:28;;;;;;;3.83;0.75;;;19.60;99.90;;;;;;5051720;28;20229;-60
2022/10/15 07:49:55;;;;;;;1.15;0.47;;;19.80;99.90;;;;;;5052645;28;20232;-60
2022/10/15 07:52:22;;;;;;;3.28;0.88;;;20.00;99.90;;;;;;5052324;28;20213;-65
2022/10/15 07:54:48;;;;;;;0.68;0.50;;;20.20;99.90;;;;;;5052821;28;20205;-63
2022/10/15 07:57:16;;;;;;;0.80;0.50;;;20.40;99.90;;;;;;5052193;28;20224;-62
2022/10/15 07:59:43;;;;;;;2.53;0.70;;;20.50;99.90;;;;;;5051123;28;20233;-59
2022/10/15 08:02:14;;;;;;;1.90;0.68;;;20.80;99.90;;;;;;5053162;28;20206;-61
2022/10/15 08:04:41;;;;;;;2.53;1.15;;;20.90;99.90;;;;;;5052710;28;20213;-62
2022/10/15 08:07:08;;;;;;;1.67;0.60;;;20.90;99.90;;;;;;5054238;28;20225;-60
2022/10/15 08:09:35;;;;;;;5.68;1.20;;;20.90;99.90;;;;;;5054702;28;20233;-61
2022/10/15 08:12:01;;;;;;;4.47;0.70;;;20.90;99.90;;;;;;5055178;28;20214;-61
2022/10/15 08:14:30;;;;;;;3.47;1.20;;;20.90;99.90;;;;;;5053706;28;20646;-63
2022/10/15 08:16:56;;;;;;;3.15;1.00;;;20.90;99.90;;;;;;5052318;28;20588;-62
2022/10/15 08:19:23;;;;;;;1.10;0.90;;;20.90;99.90;;;;;;5052863;28;20236;-61
2022/10/15 08:21:50;;;;;;;1.67;1.23;;;20.90;99.90;;;;;;5052700;28;20677;-61
2022/10/15 08:24:17;;;;;;;1.30;1.13;;;20.80;99.90;;;;;;5051568;28;20209;-63
2022/10/15 08:26:43;;;;;;;1.33;0.80;;;20.70;99.90;;;;;;5052275;28;20255;-61
2022/10/15 08:29:10;;;;;;;2.10;1.20;;;20.70;99.90;;;;;;5052821;28;20587;-61
2022/10/15 08:31:39;;;;;;;5.72;2.10;;;20.70;99.90;;;;;;5051933;28;20217;-62
2022/10/15 08:34:07;;;;;;;3.92;1.63;;;20.70;99.90;;;;;;5051404;28;20216;-61
2022/10/15 08:36:34;;;;;;;1.83;1.20;;;20.60;99.90;;;;;;5050744;28;20626;-62
2022/10/15 08:39:00;;;;;;;1.88;0.95;;;20.40;99.90;;;;;;5051572;28;20233;-61
2022/10/15 08:41:32;;;;;;;1.92;1.15;;;20.30;99.90;;;;;;5051923;28;20584;-61
2022/10/15 08:44:00;;;;;;;1.08;0.90;;;20.30;99.90;;;;;;5051335;28;20216;-63
2022/10/15 08:46:34;;;;;;;2.10;0.90;;;20.10;99.90;;;;;;5051515;28;20728;-63
2022/10/15 08:49:03;;;;;;;1.33;0.85;;;20.10;99.90;;;;;;5051500;28;20221;-62
2022/10/15 08:51:40;;;;;;;0.82;0.60;;;20.00;99.90;;;;;;5051329;28;20217;-61
2022/10/15 08:54:13;;;;;;;2.25;0.60;;;20.00;99.90;;;;;;5051222;28;20213;-61
2022/10/15 08:56:45;;;;;;;3.13;0.60;;;20.10;99.90;;;;;;5051174;28;20559;-62
2022/10/15 08:59:26;;;;;;;2.05;0.70;;;20.10;99.90;;;;;;5051653;28;20245;-63
2022/10/15 09:01:57;;;;;;;2.25;0.57;;;20.10;99.90;;;;;;5051989;28;20213;-61
2022/10/15 09:04:31;;;;;;;1.52;0.47;;;20.20;99.90;;;;;;5051454;28;20427;-61
2022/10/15 09:07:05;;;;;;;0.88;0.68;;;20.30;99.90;;;;;;5053354;28;20233;-62
2022/10/15 09:09:37;;;;;;;1.38;0.63;;;20.20;99.90;;;;;;5060347;28;20226;-63
2022/10/15 09:12:17;;;;;;;0.57;0.40;;;20.10;99.90;;;;;;5057851;28;20644;-61
2022/10/15 09:14:46;;;;;;;2.05;0.50;;;20.20;99.90;;;;;;5058151;28;20213;-63
2022/10/15 09:17:20;;;;;;;2.95;0.70;;;20.30;99.90;;;;;;5057426;28;20275;-62
2022/10/15 09:19:51;;;;;;;1.70;0.73;;;20.30;99.90;;;;;;5056337;28;20316;-61
2022/10/15 09:22:23;;;;;;;2.05;0.63;;;20.20;99.90;;;;;;5051468;28;20665;-61
2022/10/15 09:24:50;;;;;;;1.67;0.88;;;20.20;99.90;;;;;;5050133;28;20750;-61
2022/10/15 09:27:24;;;;;;;3.47;1.00;;;20.20;99.90;;;;;;5050897;28;20225;-64
2022/10/15 09:30:02;;;;;;;1.40;0.60;;;20.20;99.90;;;;;;5051673;28;20228;-61
2022/10/15 09:32:35;;;;;;;2.33;0.88;;;20.30;99.90;;;;;;5050826;28;20212;-61
2022/10/15 09:35:14;;;;;;;0.80;0.50;;;20.30;99.90;;;;;;5050037;28;20213;-61
2022/10/15 09:37:50;;;;;;;1.83;0.73;;;20.20;99.90;;;;;;5050097;28;20224;-60
2022/10/15 09:40:39;;;;;;;1.50;0.90;;;20.30;99.90;;;;;;5050644;28;20233;-62
2022/10/15 09:43:06;;;;;;;1.90;0.77;;;20.50;99.90;;;;;;5050029;28;20681;-62
2022/10/15 09:45:33;;;;;;;4.75;1.40;;;20.60;99.90;;;;;;5050328;28;20213;-61
2022/10/15 09:48:02;;;;;;;2.58;1.25;;;20.70;99.90;;;;;;5050105;28;20216;-61
2022/10/15 09:50:39;;;;;;;14.27;10.45;;;20.90;99.90;;;;;;5051170;28;20244;-62
2022/10/15 09:53:17;;;;;;;2.20;1.08;;;20.90;99.90;;;;;;5050712;28;20212;-62
2022/10/15 09:55:51;;;;;;;1.13;1.00;;;21.20;99.90;;;;;;5050338;28;20677;-60
2022/10/15 09:58:22;;;;;;;1.27;0.75;;;21.20;99.90;;;;;;5050079;28;20208;-61
2022/10/15 10:00:55;;;;;;;2.22;1.00;;;21.20;99.90;;;;;;5050348;28;20202;-61
2022/10/15 10:03:23;;;;;;;1.58;0.88;;;21.30;99.90;;;;;;5050965;28;20214;-63
2022/10/15 10:05:59;;;;;;;2.25;1.00;;;21.30;99.90;;;;;;5050597;28;20205;-62
2022/10/15 10:08:29;;;;;;;2.92;1.00;;;21.60;99.90;;;;;;5049657;28;20296;-63
2022/10/15 10:10:57;;;;;;;0.40;0.40;;;21.70;99.90;;;;;;5050763;28;20206;-61
2022/10/15 10:13:27;;;;;;;3.17;1.75;;;21.70;99.90;;;;;;5049758;28;20218;-61
2022/10/15 10:15:56;;;;;;;1.65;0.70;;;21.80;99.90;;;;;;5050189;28;20211;-60
2022/10/15 10:18:24;;;;;;;4.57;1.05;;;21.80;99.90;;;;;;5049988;28;20206;-61
2022/10/15 10:20:58;;;;;;;0.88;0.70;;;21.90;99.90;;;;;;5050346;28;20696;-60
2022/10/15 10:23:30;;;;;;;2.97;1.00;;;22.00;99.90;;;;;;5052566;28;20201;-61
2022/10/15 10:25:58;;;;;;;1.73;1.00;;;22.10;99.90;;;;;;5053414;28;20249;-61
2022/10/15 10:28:29;;;;;;;2.15;0.90;;;22.30;99.90;;;;;;5053705;28;20210;-61
2022/10/15 10:31:03;;;;;;;0.77;0.57;;;22.30;99.90;;;;;;5053707;28;20212;-63
2022/10/15 10:33:32;;;;;;;2.22;1.10;;;22.20;99.90;;;;;;5052901;28;20245;-62
2022/10/15 10:36:00;;;;;;;1.65;0.80;;;22.40;99.90;;;;;;5053707;28;20213;-63
2022/10/15 10:38:30;;;;;;;2.60;0.93;;;22.60;99.90;;;;;;5052914;28;20278;-62
2022/10/15 10:41:04;;;;;;;3.72;1.00;;;22.60;99.90;;;;;;5053784;28;20202;-62
2022/10/15 10:43:31;;;;;;;3.25;0.80;;;22.80;99.90;;;;;;5053003;28;20677;-63
2022/10/15 10:46:00;;;;;;;1.02;0.80;;;23.10;99.90;;;;;;5053109;28;20748;-62
2022/10/15 10:48:28;;;;;;;2.72;0.80;;;23.40;99.90;;;;;;5053376;28;20209;-61
2022/10/15 10:51:06;;;;;;;1.63;0.70;;;23.60;99.90;;;;;;5053365;28;20208;-61
2022/10/15 10:53:34;;;;;;;3.60;0.77;;;23.80;99.90;;;;;;5053127;28;20205;-61
2022/10/15 10:56:07;;;;;;;4.90;3.85;;;23.90;99.90;;;;;;5053411;28;20209;-63
2022/10/15 10:58:34;;;;;;;3.65;1.48;;;23.90;99.90;;;;;;5052683;28;20210;-62
2022/10/15 11:01:01;;;;;;;2.85;1.58;;;24.00;99.90;;;;;;5053769;28;20212;-61
2022/10/15 11:03:34;;;;;;;15.73;5.88;;;24.10;99.90;;;;;;5053047;28;20206;-61
2022/10/15 11:06:36;;;;;;;1.40;0.70;;;24.10;99.90;;;;;;5054446;28;20206;-61
2022/10/15 11:09:13;;;;;;;2.97;0.50;;;24.00;99.90;;;;;;5053954;28;20728;-62
2022/10/15 11:11:48;;;;;;;1.10;0.77;;;23.80;99.90;;;;;;5054142;28;20284;-63
2022/10/15 11:14:26;;;;;;;7.13;4.43;;;23.80;99.90;;;;;;5052868;28;20697;-60
2022/10/15 11:17:00;;;;;;;3.75;1.02;;;23.80;99.90;;;;;;5052841;28;20213;-60
2022/10/15 11:19:34;;;;;;;1.85;0.88;;;23.90;99.90;;;;;;5053167;28;20228;-60
2022/10/15 11:22:16;;;;;;;2.25;0.63;;;23.80;99.90;;;;;;5052856;28;20216;-60
2022/10/15 11:24:49;;;;;;;2.67;0.98;;;23.50;99.90;;;;;;5052624;28;20205;-60
2022/10/15 11:27:30;;;;;;;2.70;1.00;;;23.30;99.90;;;;;;5052525;28;20221;-62
2022/10/15 11:30:03;;;;;;;3.50;1.33;;;23.10;99.90;;;;;;5052807;28;20229;-60
2022/10/15 11:32:41;;;;;;;1.30;0.60;;;23.00;99.90;;;;;;5052772;28;20209;-61
2022/10/15 11:35:20;;;;;;;2.22;0.65;;;23.00;99.90;;;;;;5052406;28;20201;-59
2022/10/15 11:37:57;;;;;;;1.08;0.30;;;23.10;99.90;;;;;;5052480;28;20208;-61
2022/10/15 11:40:33;;;;;;;1.55;0.70;;;23.10;99.90;;;;;;5052293;28;20501;-61
2022/10/15 11:43:03;;;;;;;2.00;0.95;;;23.20;99.90;;;;;;5051876;28;20696;-61
2022/10/15 11:45:43;;;;;;;3.10;1.23;;;23.30;99.90;;;;;;5052821;28;20202;-62
2022/10/15 11:48:17;;;;;;;3.88;1.30;;;23.60;99.90;;;;;;5052183;28;20237;-60
2022/10/15 11:50:49;;;;;;;4.63;2.20;;;23.80;99.90;;;;;;5052292;28;20744;-60
2022/10/15 11:53:37;;;;;;;2.95;0.98;;;23.90;99.90;;;;;;5052420;28;20194;-62
2022/10/15 11:56:10;;;;;;;4.57;1.08;;;24.10;99.90;;;;;;5052636;28;20701;-60
2022/10/15 11:58:41;;;;;;;2.92;0.90;;;24.30;99.90;;;;;;5051665;28;20209;-61
2022/10/15 12:01:14;;;;;;;4.45;0.90;;;24.30;99.90;;;;;;5053878;28;20185;-63
2022/10/15 12:03:48;;;;;;;2.13;1.30;;;24.40;99.90;;;;;;5053607;28;20205;-63
2022/10/15 12:06:18;;;;;;;3.65;0.60;;;24.40;99.90;;;;;;5053750;28;20680;-65
2022/10/15 12:08:50;;;;;;;2.67;0.82;;;24.30;99.90;;;;;;5053853;28;20236;-63
2022/10/15 12:11:32;;;;;;;1.67;0.60;;;24.30;99.90;;;;;;5054710;28;20190;-63
2022/10/15 12:14:05;;;;;;;1.77;0.80;;;24.20;99.90;;;;;;5053158;28;20206;-65
2022/10/15 12:16:38;;;;;;;7.78;0.98;;;24.00;99.90;;;;;;5052740;28;20216;-66
2022/10/15 12:19:15;;;;;;;2.13;0.63;;;23.80;99.90;;;;;;5052026;28;20229;-66
2022/10/15 12:21:44;;;;;;;3.17;0.80;;;23.60;99.90;;;;;;5052140;28;20215;-64
2022/10/15 12:24:46;;;;;;;3.97;0.60;;;23.50;99.90;;;;;;5051320;28;20669;-65
2022/10/15 12:27:28;;;;;;;3.05;0.45;;;23.30;99.90;;;;;;5051281;28;20315;-62
2022/10/15 12:30:27;;;;;;;1.30;0.50;;;23.30;99.90;;;;;;5052339;28;20312;-65
2022/10/15 12:32:54;;;;;;;1.92;0.40;;;23.40;99.90;;;;;;5051441;28;20228;-63
2022/10/15 12:35:41;;;;;;;2.15;0.45;;;23.30;99.90;;;;;;5051042;28;20670;-63
2022/10/15 12:38:22;;;;;;;2.30;0.75;;;23.30;99.90;;;;;;5051268;28;20594;-61
2022/10/15 12:40:58;;;;;;;1.88;0.60;;;23.20;99.90;;;;;;5051071;28;20213;-62
2022/10/15 12:43:27;;;;;;;0.93;0.40;;;23.20;99.90;;;;;;5051018;28;20200;-62
2022/10/15 12:45:57;;;;;;;0.98;0.60;;;23.10;99.90;;;;;;5050974;28;20232;-63
2022/10/15 12:48:33;;;;;;;2.10;0.55;;;23.00;99.90;;;;;;5051382;28;20751;-62
2022/10/15 12:51:37;;;;;;;3.67;0.60;;;22.90;99.90;;;;;;5050886;28;20205;-64
2022/10/15 12:54:35;;;;;;;1.50;0.70;;;22.80;99.90;;;;;;5050697;28;20228;-63
2022/10/15 12:57:05;;;;;;;3.63;0.90;;;22.60;99.90;;;;;;5050702;28;20673;-65
2022/10/15 12:59:53;;;;;;;3.08;0.70;;;22.50;99.90;;;;;;5051220;28;20230;-64
2022/10/15 13:02:37;;;;;;;0.95;0.60;;;22.50;99.90;;;;;;5052195;28;20296;-63